METAR Data
IDs: Format: Raw Decoded Include TAF

Data at: 0248 UTC 05 Jun 2020

KHFJ 050235Z AUTO 17004KT 10SM SCT037 25/22 A2983 RMK AO2
KHFJ 050215Z AUTO 18006KT 10SM BKN035 BKN043 25/22 A2983 RMK AO2
KHFJ 050150Z AUTO 18005KT 10SM OVC033 26/22 A2983 RMK AO2
KHFJ 050135Z AUTO 19005KT 10SM BKN033 26/22 A2983 RMK AO2
KHFJ 050120Z AUTO 18005KT 10SM SCT033 26/22 A2982 RMK AO2
KHFJ 050055Z AUTO 18004KT 10SM CLR 27/22 A2981 RMK AO2
KHFJ 050035Z AUTO 20003KT 10SM CLR 28/22 A2982 RMK AO2
KHFJ 050015Z AUTO 22004KT 10SM SCT036 28/22 A2982 RMK AO2
KHFJ 042355Z AUTO 23005KT 10SM BKN036 28/22 A2982 RMK AO2
KHFJ 042335Z AUTO 23005KT 10SM SCT034 28/22 A2982 RMK AO2
KHFJ 042315Z AUTO 23005KT 10SM SCT034 28/22 A2982 RMK AO2
KHFJ 042255Z AUTO 21005KT 10SM BKN036 28/22 A2982 RMK AO2
KHFJ 042235Z AUTO 25006KT 10SM SCT034 28/22 A2983 RMK AO2
KHFJ 042215Z AUTO 23005KT 10SM SCT034 28/21 A2983 RMK AO2
KHFJ 042155Z AUTO 23007KT 10SM BKN035 BKN041 28/22 A2983 RMK AO2
KHFJ 042135Z AUTO 24005KT 10SM BKN033 BKN039 28/22 A2984 RMK AO2
KHFJ 042115Z AUTO 22008KT 10SM BKN033 28/22 A2983 RMK AO2
KHFJ 042055Z AUTO 25009KT 10SM SCT033 29/22 A2983 RMK AO2
KHFJ 042035Z AUTO 24010G16KT 10SM SCT031 28/22 A2984 RMK AO2
KHFJ 042015Z AUTO 24010KT 10SM SCT031 28/22 A2984 RMK AO2
KHFJ 041955Z AUTO 23011G15KT 10SM CLR 28/21 A2984 RMK AO2
KHFJ 041935Z AUTO 23010KT 10SM CLR 28/21 A2986 RMK AO2
KHFJ 041915Z AUTO 20008KT 10SM CLR 27/21 A2986 RMK AO2
KHFJ 041855Z AUTO 21009KT 10SM CLR 27/21 A2986 RMK AO2
KHFJ 041835Z AUTO 20009KT 10SM CLR 27/20 A2986 RMK AO2
KHFJ 041815Z AUTO 20009KT 10SM CLR 26/19 A2986 RMK AO2
KHFJ 041755Z AUTO 21012KT 10SM CLR 27/20 A2986 RMK AO2
KHFJ 041735Z AUTO 20007KT 10SM CLR 25/21 A2986 RMK AO2
KHFJ 041715Z AUTO 20008KT 10SM CLR 24/20 A2986 RMK AO2
KHFJ 041655Z AUTO 19007KT 160V220 10SM CLR 21/21 A2987 RMK AO2
KHFJ 041635Z AUTO 19008KT 10SM CLR 20/20 A2987 RMK AO2
KHFJ 041615Z AUTO 19008KT 10SM CLR 20/20 A2988 RMK AO2
KHFJ 041555Z AUTO 18008G14KT 10SM SCT075 SCT110 18/18 A2987 RMK AO2
KHFJ 041535Z AUTO 18009KT 10SM SCT050 BKN065 18/18 A2988 RMK AO2 LTG DSNT S
KHFJ 041515Z AUTO 19004KT 10SM BKN060 OVC070 18/18 A2989 RMK AO2
KHFJ 041455Z AUTO 17006KT 10SM -RA SCT026 BKN042 OVC075 17/17 A2990 RMK AO2 LTG DSNT SE P0017
KHFJ 041435Z AUTO 14009KT 1SM -VCTSRA BKN017 BKN027 OVC070 17/17 A2989 RMK AO2 LTG DSNT E THRU S P0013
KHFJ 041415Z AUTO 11004KT 10SM TS SCT050 BKN070 OVC095 17/17 A2992 RMK AO2 LTG DSNT N THRU E
KHFJ 041355Z AUTO 12004KT 2 1/2SM VCTSRA SCT035 BKN070 OVC110 17/17 A2991 RMK AO2 VIS 1V5 LTG DSNT ALQS P0005
KHFJ 041335Z AUTO 09003KT 10SM -TSRA SCT070 BKN110 17/17 A2993 RMK AO2 LTG DSNT ALQS
KHFJ 041315Z AUTO 10003KT 10SM -TSRA SCT028 BKN065 OVC110 17/17 A2991 RMK AO2 LTG DSNT ALQS
KHFJ 041255Z AUTO 00000KT 4SM +VCTSRA SCT026 SCT032 OVC065 17/17 A2993 RMK AO2 LTG DSNT ALQS P0006
KHFJ 041235Z AUTO 19004KT 10SM OVC065 17/17 A2992 RMK AO2 LTG DSNT S THRU NW
KHFJ 041220Z AUTO 08004KT 10SM VCTS BKN065 17/17 A2991 RMK AO2 LTG DSNT ALQS
KHFJ 041150Z AUTO 03004KT 10SM SCT035 SCT055 BKN065 17/17 A2992 RMK AO2 LTG DSNT ALQS P0005
KHFJ 041135Z AUTO 04010KT 10SM -DZ SCT027 SCT039 BKN055 17/17 A2991 RMK AO2 LTG DSNT ALQS P0005
KHFJ 041115Z AUTO 02013G20KT 10SM TSRA SCT008 BKN048 OVC070 17/17 A2992 RMK AO2 LTG DSNT ALQS P0004
KHFJ 041055Z AUTO 03015G23KT 2SM +RA BKN010 BKN018 OVC029 17/17 A2993 RMK AO2 LTG DSNT W THRU E P0046
KHFJ 041035Z AUTO 01019G29KT 2SM +VCTSRA BKN010 BKN027 OVC065 18/18 A2996 RMK AO2 LTG DSNT ALQS P0010
KHFJ 041015Z AUTO 23004KT 10SM BKN100 21/21 A2986 RMK AO2 LTG DSNT NW THRU E
KHFJ 040955Z AUTO 21005KT 10SM SCT090 21/21 A2984 RMK AO2 LTG DSNT N AND NW
KHFJ 040935Z AUTO 20006KT 10SM CLR 21/21 A2983 RMK AO2 LTG DSNT N
KHFJ 040915Z AUTO 20007KT 10SM CLR 21/21 A2981 RMK AO2 LTG DSNT N
KHFJ 040855Z AUTO 20007KT 10SM SCT090 21/21 A2981 RMK AO2 LTG DSNT N AND NW
KHFJ 040835Z AUTO 21007KT 10SM SCT090 22/21 A2983 RMK AO2 LTG DSNT NE
KHFJ 040815Z AUTO 22009KT 10SM CLR 22/21 A2983 RMK AO2
KHFJ 040755Z AUTO 21009KT 10SM CLR 22/21 A2984 RMK AO2
KHFJ 040735Z AUTO 20010KT 10SM CLR 22/21 A2984 RMK AO2
KHFJ 040715Z AUTO 20010KT 10SM CLR 22/21 A2984 RMK AO2
KHFJ 040655Z AUTO 19009KT 10SM CLR 22/21 A2985 RMK AO2
KHFJ 040635Z AUTO 17006KT 10SM CLR 22/21 A2986 RMK AO2
KHFJ 040615Z AUTO 18007KT 10SM CLR 23/22 A2987 RMK AO2
KHFJ 040555Z AUTO 19006KT 10SM CLR 23/22 A2988 RMK AO2
KHFJ 040535Z AUTO 20008KT 10SM CLR 23/21 A2987 RMK AO2
KHFJ 040515Z AUTO 19007KT 10SM CLR 23/21 A2987 RMK AO2
KHFJ 040455Z AUTO 19007KT 10SM CLR 23/21 A2987 RMK AO2
KHFJ 040435Z AUTO 20006KT 10SM CLR 23/21 A2987 RMK AO2
KHFJ 040415Z AUTO 21006KT 10SM CLR 23/21 A2987 RMK AO2
KHFJ 040355Z AUTO 20005KT 10SM CLR 23/21 A2986 RMK AO2
KHFJ 040335Z AUTO 19004KT 10SM CLR 23/21 A2986 RMK AO2
KHFJ 040315Z AUTO 18006KT 10SM CLR 24/21 A2986 RMK AO2
KHFJ 040255Z AUTO 17004KT 10SM CLR 25/21 A2987 RMK AO2
KHFJ 040235Z AUTO 17004KT 10SM CLR 25/21 A2986 RMK AO2
KHFJ 040215Z AUTO 19004KT 10SM CLR 25/21 A2986 RMK AO2
KHFJ 040155Z AUTO 22003KT 10SM CLR 26/21 A2987 RMK AO2
KHFJ 040135Z AUTO 20005KT 10SM CLR 26/21 A2987 RMK AO2
KHFJ 040115Z AUTO 20006KT 10SM CLR 27/21 A2987 RMK AO2
KHFJ 040100Z AUTO 20006KT 10SM CLR 27/21 A2988 RMK AO2
KHFJ 040035Z AUTO 18005KT 10SM SCT038 SCT046 SCT050 28/21 A2988 RMK AO2
KHFJ 040015Z AUTO 20005KT 10SM SCT040 29/21 A2988 RMK AO2
KHFJ 032355Z AUTO 25007KT 10SM SCT040 29/21 A2987 RMK AO2
KHFJ 032335Z AUTO 22008KT 10SM CLR 30/21 A2987 RMK AO2 LTG DSNT SE
KHFJ 032315Z AUTO 23007KT 10SM SCT042 SCT065 29/21 A2987 RMK AO2
KHFJ 032255Z AUTO 23008KT 10SM SCT042 SCT050 SCT065 29/20 A2987 RMK AO2
KHFJ 032235Z AUTO 25008KT 10SM SCT042 SCT049 SCT060 30/21 A2988 RMK AO2
KHFJ 032215Z AUTO 22006KT 10SM SCT044 BKN060 30/21 A2988 RMK AO2
KHFJ 032155Z AUTO 21008KT 10SM SCT041 SCT050 30/21 A2989 RMK AO2 LTG DSNT SE
KHFJ 032135Z AUTO 25008KT 10SM SCT042 SCT049 SCT060 30/21 A2989 RMK AO2 LTG DSNT E AND SE
KHFJ 032115Z AUTO 23007KT 10SM SCT040 30/20 A2990 RMK AO2
KHFJ 032055Z AUTO 25008KT 10SM CLR 30/21 A2990 RMK AO2 LTG DSNT SE
KHFJ 032035Z AUTO 23008KT 10SM SCT038 SCT050 30/21 A2990 RMK AO2 LTG DSNT E
KHFJ 032015Z AUTO 22009KT 10SM SCT038 30/21 A2991 RMK AO2 LTG DSNT E
KHFJ 031955Z AUTO 24005KT 10SM BKN036 BKN044 30/21 A2991 RMK AO2 LTG DSNT E
KHFJ 031935Z AUTO 24009KT 10SM BKN036 BKN044 BKN055 29/21 A2992 RMK AO2 LTG DSNT E
KHFJ 031915Z AUTO 23009KT 10SM SCT036 SCT055 SCT065 29/21 A2992 RMK AO2 LTG DSNT E
KHFJ 031855Z AUTO 24009G16KT 10SM SCT034 30/21 A2993 RMK AO2 LTG DSNT E AND SE
KHFJ 031835Z AUTO 22012G16KT 10SM SCT032 29/21 A2994 RMK AO2 LTG DSNT E AND SE
KHFJ 031815Z AUTO 24009KT 10SM CLR 29/21 A2996 RMK AO2
KHFJ 031755Z AUTO 24008KT 10SM SCT065 BKN080 27/21 A2996 RMK AO2
KHFJ 031735Z AUTO 24010KT 10SM SCT031 OVC065 28/20 A2997 RMK AO2 LTG DSNT SE
KHFJ 031715Z AUTO 24012KT 10SM SCT029 OVC065 28/21 A2998 RMK AO2
KHFJ 031655Z AUTO 23012KT 10SM SCT029 SCT065 28/21 A2998 RMK AO2 LTG DSNT SE
KHFJ 031635Z AUTO 23012G15KT 10SM CLR 27/21 A2999 RMK AO2
KHFJ 031615Z AUTO 23012G17KT 10SM CLR 27/20 A2999 RMK AO2
KHFJ 031555Z AUTO 23012G16KT 10SM CLR 27/20 A3000 RMK AO2
KHFJ 031535Z AUTO 22010G15KT 10SM CLR 27/20 A3000 RMK AO2
KHFJ 031515Z AUTO 23013G20KT 10SM CLR 26/20 A3000 RMK AO2
KHFJ 031455Z AUTO 24010KT 10SM CLR 26/20 A3001 RMK AO2